sensor_id;sensor_type;location;lat;lon;timestamp;P1;durP1;ratioP1;P2;durP2;ratioP2
36829;SDS011;22767;47.328;9.640;2023-01-30T00:00:27;30.73;;;16.88;;
36829;SDS011;22767;47.328;9.640;2023-01-30T00:02:54;28.35;;;17.63;;
36829;SDS011;22767;47.328;9.640;2023-01-30T00:05:20;31.13;;;17.52;;
36829;SDS011;22767;47.328;9.640;2023-01-30T00:07:46;26.55;;;15.35;;
36829;SDS011;22767;47.328;9.640;2023-01-30T00:10:12;28.83;;;16.15;;
36829;SDS011;22767;47.328;9.640;2023-01-30T00:12:39;30.15;;;17.80;;
36829;SDS011;22767;47.328;9.640;2023-01-30T00:15:05;28.13;;;15.85;;
36829;SDS011;22767;47.328;9.640;2023-01-30T00:17:31;26.20;;;15.50;;
36829;SDS011;22767;47.328;9.640;2023-01-30T00:19:58;29.48;;;15.75;;
36829;SDS011;22767;47.328;9.640;2023-01-30T00:22:24;29.70;;;17.02;;
36829;SDS011;22767;47.328;9.640;2023-01-30T00:24:50;25.70;;;15.75;;
36829;SDS011;22767;47.328;9.640;2023-01-30T00:27:16;26.05;;;16.08;;
36829;SDS011;22767;47.328;9.640;2023-01-30T00:29:42;29.77;;;16.60;;
36829;SDS011;22767;47.328;9.640;2023-01-30T00:32:08;29.27;;;16.58;;
36829;SDS011;22767;47.328;9.640;2023-01-30T00:34:34;27.02;;;15.40;;
36829;SDS011;22767;47.328;9.640;2023-01-30T00:37:00;25.05;;;15.35;;
36829;SDS011;22767;47.328;9.640;2023-01-30T00:39:27;27.65;;;15.32;;
36829;SDS011;22767;47.328;9.640;2023-01-30T00:41:53;30.42;;;16.80;;
36829;SDS011;22767;47.328;9.640;2023-01-30T00:44:37;28.75;;;15.85;;
36829;SDS011;22767;47.328;9.640;2023-01-30T00:47:22;26.13;;;15.90;;
36829;SDS011;22767;47.328;9.640;2023-01-30T00:49:48;27.05;;;15.50;;
36829;SDS011;22767;47.328;9.640;2023-01-30T00:52:14;23.77;;;15.02;;
36829;SDS011;22767;47.328;9.640;2023-01-30T00:54:40;27.30;;;15.45;;
36829;SDS011;22767;47.328;9.640;2023-01-30T00:57:06;26.40;;;15.70;;
36829;SDS011;22767;47.328;9.640;2023-01-30T00:59:33;26.08;;;15.23;;
36829;SDS011;22767;47.328;9.640;2023-01-30T01:01:59;24.60;;;15.00;;
36829;SDS011;22767;47.328;9.640;2023-01-30T01:04:25;30.13;;;15.48;;
36829;SDS011;22767;47.328;9.640;2023-01-30T01:06:51;30.83;;;16.35;;
36829;SDS011;22767;47.328;9.640;2023-01-30T01:09:17;28.35;;;15.70;;
36829;SDS011;22767;47.328;9.640;2023-01-30T01:11:43;29.95;;;16.23;;
36829;SDS011;22767;47.328;9.640;2023-01-30T01:14:09;27.38;;;16.25;;
36829;SDS011;22767;47.328;9.640;2023-01-30T01:16:36;29.92;;;16.75;;
36829;SDS011;22767;47.328;9.640;2023-01-30T01:19:02;25.85;;;15.45;;
36829;SDS011;22767;47.328;9.640;2023-01-30T01:21:28;26.17;;;14.75;;
36829;SDS011;22767;47.328;9.640;2023-01-30T01:23:58;27.33;;;15.35;;
36829;SDS011;22767;47.328;9.640;2023-01-30T01:26:25;26.83;;;15.07;;
36829;SDS011;22767;47.328;9.640;2023-01-30T01:28:57;24.33;;;14.55;;
36829;SDS011;22767;47.328;9.640;2023-01-30T01:31:24;24.70;;;13.77;;
36829;SDS011;22767;47.328;9.640;2023-01-30T01:33:50;25.83;;;14.63;;
36829;SDS011;22767;47.328;9.640;2023-01-30T01:36:17;26.70;;;14.30;;
36829;SDS011;22767;47.328;9.640;2023-01-30T01:38:43;24.98;;;14.50;;
36829;SDS011;22767;47.328;9.640;2023-01-30T01:41:10;25.38;;;14.40;;
36829;SDS011;22767;47.328;9.640;2023-01-30T01:43:56;29.75;;;14.95;;
36829;SDS011;22767;47.328;9.640;2023-01-30T01:46:24;26.00;;;14.15;;
36829;SDS011;22767;47.328;9.640;2023-01-30T01:48:52;24.70;;;13.98;;
36829;SDS011;22767;47.328;9.640;2023-01-30T01:53:52;25.52;;;15.32;;
36829;SDS011;22767;47.328;9.640;2023-01-30T01:56:20;26.90;;;14.38;;
36829;SDS011;22767;47.328;9.640;2023-01-30T01:58:48;25.15;;;14.43;;
36829;SDS011;22767;47.328;9.640;2023-01-30T02:01:16;25.60;;;14.40;;
36829;SDS011;22767;47.328;9.640;2023-01-30T02:03:44;27.75;;;15.13;;
36829;SDS011;22767;47.328;9.640;2023-01-30T02:06:10;28.80;;;15.32;;
36829;SDS011;22767;47.328;9.640;2023-01-30T02:08:40;27.60;;;15.13;;
36829;SDS011;22767;47.328;9.640;2023-01-30T02:11:09;30.77;;;15.52;;
36829;SDS011;22767;47.328;9.640;2023-01-30T02:13:37;29.33;;;14.95;;
36829;SDS011;22767;47.328;9.640;2023-01-30T02:16:04;33.00;;;16.58;;
36829;SDS011;22767;47.328;9.640;2023-01-30T02:18:31;28.60;;;15.68;;
36829;SDS011;22767;47.328;9.640;2023-01-30T02:33:56;28.42;;;15.07;;
36829;SDS011;22767;47.328;9.640;2023-01-30T02:36:47;24.40;;;13.80;;
36829;SDS011;22767;47.328;9.640;2023-01-30T02:41:47;26.17;;;14.38;;
36829;SDS011;22767;47.328;9.640;2023-01-30T02:44:24;23.58;;;14.15;;
36829;SDS011;22767;47.328;9.640;2023-01-30T02:46:53;25.13;;;13.10;;
36829;SDS011;22767;47.328;9.640;2023-01-30T02:51:51;23.40;;;12.95;;
36829;SDS011;22767;47.328;9.640;2023-01-30T02:54:17;22.17;;;13.05;;
36829;SDS011;22767;47.328;9.640;2023-01-30T02:56:47;22.55;;;12.88;;
36829;SDS011;22767;47.328;9.640;2023-01-30T02:59:18;23.23;;;12.77;;
36829;SDS011;22767;47.328;9.640;2023-01-30T03:07:02;22.85;;;12.43;;
36829;SDS011;22767;47.328;9.640;2023-01-30T03:12:05;21.98;;;11.75;;
36829;SDS011;22767;47.328;9.640;2023-01-30T03:14:38;23.38;;;12.18;;
36829;SDS011;22767;47.328;9.640;2023-01-30T03:17:08;22.05;;;12.38;;
36829;SDS011;22767;47.328;9.640;2023-01-30T03:19:35;24.23;;;12.43;;
36829;SDS011;22767;47.328;9.640;2023-01-30T03:22:01;19.67;;;10.65;;
36829;SDS011;22767;47.328;9.640;2023-01-30T03:24:27;20.95;;;11.50;;
36829;SDS011;22767;47.328;9.640;2023-01-30T03:26:56;20.67;;;11.77;;
36829;SDS011;22767;47.328;9.640;2023-01-30T03:29:23;19.92;;;10.40;;
36829;SDS011;22767;47.328;9.640;2023-01-30T03:31:49;21.55;;;10.80;;
36829;SDS011;22767;47.328;9.640;2023-01-30T03:34:15;20.88;;;11.32;;
36829;SDS011;22767;47.328;9.640;2023-01-30T03:36:41;27.23;;;12.27;;
36829;SDS011;22767;47.328;9.640;2023-01-30T03:39:08;17.10;;;10.02;;
36829;SDS011;22767;47.328;9.640;2023-01-30T03:41:34;18.00;;;8.77;;
36829;SDS011;22767;47.328;9.640;2023-01-30T03:44:00;19.88;;;11.10;;
36829;SDS011;22767;47.328;9.640;2023-01-30T03:46:26;20.20;;;11.25;;
36829;SDS011;22767;47.328;9.640;2023-01-30T03:48:52;23.55;;;11.25;;
36829;SDS011;22767;47.328;9.640;2023-01-30T03:51:18;20.52;;;11.30;;
36829;SDS011;22767;47.328;9.640;2023-01-30T03:53:44;21.60;;;11.40;;
36829;SDS011;22767;47.328;9.640;2023-01-30T03:56:11;20.10;;;11.75;;
36829;SDS011;22767;47.328;9.640;2023-01-30T03:58:37;22.02;;;11.55;;
36829;SDS011;22767;47.328;9.640;2023-01-30T04:01:03;19.45;;;10.95;;
36829;SDS011;22767;47.328;9.640;2023-01-30T04:03:29;18.88;;;10.95;;
36829;SDS011;22767;47.328;9.640;2023-01-30T04:05:55;18.15;;;9.80;;
36829;SDS011;22767;47.328;9.640;2023-01-30T04:08:21;19.27;;;10.85;;
36829;SDS011;22767;47.328;9.640;2023-01-30T04:10:47;17.85;;;10.20;;
36829;SDS011;22767;47.328;9.640;2023-01-30T04:13:14;19.65;;;11.20;;
36829;SDS011;22767;47.328;9.640;2023-01-30T04:15:40;19.65;;;11.27;;
36829;SDS011;22767;47.328;9.640;2023-01-30T04:18:06;17.77;;;9.85;;
36829;SDS011;22767;47.328;9.640;2023-01-30T04:20:32;16.90;;;9.98;;
36829;SDS011;22767;47.328;9.640;2023-01-30T04:22:59;17.45;;;9.18;;
36829;SDS011;22767;47.328;9.640;2023-01-30T04:25:25;21.08;;;11.50;;
36829;SDS011;22767;47.328;9.640;2023-01-30T04:27:51;21.75;;;10.68;;
36829;SDS011;22767;47.328;9.640;2023-01-30T04:30:17;18.92;;;10.05;;
36829;SDS011;22767;47.328;9.640;2023-01-30T04:32:43;16.98;;;9.43;;
36829;SDS011;22767;47.328;9.640;2023-01-30T04:35:09;17.85;;;10.30;;
36829;SDS011;22767;47.328;9.640;2023-01-30T04:37:36;20.58;;;11.45;;
36829;SDS011;22767;47.328;9.640;2023-01-30T04:40:02;20.13;;;10.55;;
36829;SDS011;22767;47.328;9.640;2023-01-30T04:42:28;16.50;;;10.30;;
36829;SDS011;22767;47.328;9.640;2023-01-30T04:44:55;20.00;;;11.73;;
36829;SDS011;22767;47.328;9.640;2023-01-30T04:47:21;24.35;;;13.80;;
36829;SDS011;22767;47.328;9.640;2023-01-30T04:49:47;23.35;;;11.27;;
36829;SDS011;22767;47.328;9.640;2023-01-30T04:52:13;23.05;;;12.55;;
36829;SDS011;22767;47.328;9.640;2023-01-30T04:54:39;21.48;;;11.60;;
36829;SDS011;22767;47.328;9.640;2023-01-30T04:57:05;26.70;;;12.40;;
36829;SDS011;22767;47.328;9.640;2023-01-30T04:59:31;19.17;;;11.13;;
36829;SDS011;22767;47.328;9.640;2023-01-30T05:01:58;20.20;;;10.95;;
36829;SDS011;22767;47.328;9.640;2023-01-30T05:04:24;19.25;;;11.20;;
36829;SDS011;22767;47.328;9.640;2023-01-30T05:06:50;20.25;;;12.35;;
36829;SDS011;22767;47.328;9.640;2023-01-30T05:09:16;21.30;;;11.82;;
36829;SDS011;22767;47.328;9.640;2023-01-30T05:11:42;21.48;;;12.00;;
36829;SDS011;22767;47.328;9.640;2023-01-30T05:14:08;18.05;;;10.48;;
36829;SDS011;22767;47.328;9.640;2023-01-30T05:16:34;19.05;;;10.48;;
36829;SDS011;22767;47.328;9.640;2023-01-30T05:19:01;18.45;;;10.55;;
36829;SDS011;22767;47.328;9.640;2023-01-30T05:21:27;20.02;;;11.00;;
36829;SDS011;22767;47.328;9.640;2023-01-30T05:23:53;19.70;;;10.45;;
36829;SDS011;22767;47.328;9.640;2023-01-30T05:26:20;18.98;;;10.35;;
36829;SDS011;22767;47.328;9.640;2023-01-30T05:28:50;17.48;;;9.82;;
36829;SDS011;22767;47.328;9.640;2023-01-30T05:31:17;16.83;;;9.13;;
36829;SDS011;22767;47.328;9.640;2023-01-30T05:33:44;16.88;;;9.65;;
36829;SDS011;22767;47.328;9.640;2023-01-30T05:36:12;14.75;;;9.02;;
36829;SDS011;22767;47.328;9.640;2023-01-30T05:38:41;13.70;;;7.88;;
36829;SDS011;22767;47.328;9.640;2023-01-30T05:41:07;15.32;;;8.95;;
36829;SDS011;22767;47.328;9.640;2023-01-30T05:43:33;16.90;;;8.05;;
36829;SDS011;22767;47.328;9.640;2023-01-30T05:46:00;11.90;;;7.10;;
36829;SDS011;22767;47.328;9.640;2023-01-30T05:48:27;15.40;;;8.18;;
36829;SDS011;22767;47.328;9.640;2023-01-30T05:50:55;14.20;;;7.57;;
36829;SDS011;22767;47.328;9.640;2023-01-30T05:53:22;13.13;;;7.90;;
36829;SDS011;22767;47.328;9.640;2023-01-30T05:55:54;13.13;;;7.65;;
36829;SDS011;22767;47.328;9.640;2023-01-30T05:58:21;20.98;;;9.52;;
36829;SDS011;22767;47.328;9.640;2023-01-30T06:00:47;14.45;;;8.85;;
36829;SDS011;22767;47.328;9.640;2023-01-30T06:03:13;16.08;;;8.02;;
36829;SDS011;22767;47.328;9.640;2023-01-30T06:05:40;14.07;;;8.45;;
36829;SDS011;22767;47.328;9.640;2023-01-30T06:08:06;14.45;;;7.25;;
36829;SDS011;22767;47.328;9.640;2023-01-30T06:10:32;13.98;;;7.97;;
36829;SDS011;22767;47.328;9.640;2023-01-30T06:12:59;14.23;;;7.68;;
36829;SDS011;22767;47.328;9.640;2023-01-30T06:15:25;13.10;;;7.50;;
36829;SDS011;22767;47.328;9.640;2023-01-30T06:17:51;15.15;;;8.75;;
36829;SDS011;22767;47.328;9.640;2023-01-30T06:20:17;14.85;;;8.45;;
36829;SDS011;22767;47.328;9.640;2023-01-30T06:22:43;17.80;;;9.13;;
36829;SDS011;22767;47.328;9.640;2023-01-30T06:25:09;19.80;;;9.68;;
36829;SDS011;22767;47.328;9.640;2023-01-30T06:27:36;14.38;;;8.48;;
36829;SDS011;22767;47.328;9.640;2023-01-30T06:30:02;15.43;;;9.48;;
36829;SDS011;22767;47.328;9.640;2023-01-30T06:32:28;16.67;;;9.90;;
36829;SDS011;22767;47.328;9.640;2023-01-30T06:34:55;15.40;;;8.85;;
36829;SDS011;22767;47.328;9.640;2023-01-30T06:37:21;16.05;;;9.20;;
36829;SDS011;22767;47.328;9.640;2023-01-30T06:39:47;15.05;;;8.85;;
36829;SDS011;22767;47.328;9.640;2023-01-30T06:42:13;16.08;;;9.18;;
36829;SDS011;22767;47.328;9.640;2023-01-30T06:44:39;16.10;;;9.88;;
36829;SDS011;22767;47.328;9.640;2023-01-30T06:47:05;22.65;;;11.77;;
36829;SDS011;22767;47.328;9.640;2023-01-30T06:49:31;16.92;;;10.05;;
36829;SDS011;22767;47.328;9.640;2023-01-30T06:52:01;16.70;;;9.68;;
36829;SDS011;22767;47.328;9.640;2023-01-30T06:54:27;16.33;;;9.75;;
36829;SDS011;22767;47.328;9.640;2023-01-30T06:56:54;19.25;;;11.15;;
36829;SDS011;22767;47.328;9.640;2023-01-30T06:59:20;18.52;;;10.25;;
36829;SDS011;22767;47.328;9.640;2023-01-30T07:01:46;19.20;;;10.88;;
36829;SDS011;22767;47.328;9.640;2023-01-30T07:04:12;19.85;;;11.30;;
36829;SDS011;22767;47.328;9.640;2023-01-30T07:06:38;21.45;;;11.77;;
36829;SDS011;22767;47.328;9.640;2023-01-30T07:09:04;19.95;;;11.35;;
36829;SDS011;22767;47.328;9.640;2023-01-30T07:11:31;21.05;;;10.82;;
36829;SDS011;22767;47.328;9.640;2023-01-30T07:13:57;24.98;;;11.68;;
36829;SDS011;22767;47.328;9.640;2023-01-30T07:16:23;19.10;;;10.75;;
36829;SDS011;22767;47.328;9.640;2023-01-30T07:18:54;20.98;;;12.13;;
36829;SDS011;22767;47.328;9.640;2023-01-30T07:21:22;25.55;;;13.15;;
36829;SDS011;22767;47.328;9.640;2023-01-30T07:23:48;20.95;;;12.10;;
36829;SDS011;22767;47.328;9.640;2023-01-30T07:26:14;23.20;;;13.15;;
36829;SDS011;22767;47.328;9.640;2023-01-30T07:28:40;25.52;;;12.48;;
36829;SDS011;22767;47.328;9.640;2023-01-30T07:31:06;29.73;;;13.77;;
36829;SDS011;22767;47.328;9.640;2023-01-30T07:33:33;25.80;;;14.52;;
36829;SDS011;22767;47.328;9.640;2023-01-30T07:35:59;24.77;;;13.80;;
36829;SDS011;22767;47.328;9.640;2023-01-30T07:38:25;25.85;;;14.23;;
36829;SDS011;22767;47.328;9.640;2023-01-30T07:40:51;22.92;;;13.38;;
36829;SDS011;22767;47.328;9.640;2023-01-30T07:43:17;23.10;;;12.88;;
36829;SDS011;22767;47.328;9.640;2023-01-30T07:45:47;22.10;;;12.57;;
36829;SDS011;22767;47.328;9.640;2023-01-30T07:48:14;24.38;;;13.65;;
36829;SDS011;22767;47.328;9.640;2023-01-30T07:50:41;30.98;;;15.52;;
36829;SDS011;22767;47.328;9.640;2023-01-30T07:53:08;25.25;;;13.07;;
36829;SDS011;22767;47.328;9.640;2023-01-30T07:55:35;21.65;;;12.23;;
36829;SDS011;22767;47.328;9.640;2023-01-30T07:58:01;21.95;;;12.38;;
36829;SDS011;22767;47.328;9.640;2023-01-30T08:00:28;21.10;;;12.02;;
36829;SDS011;22767;47.328;9.640;2023-01-30T08:02:54;19.90;;;11.45;;
36829;SDS011;22767;47.328;9.640;2023-01-30T08:05:20;21.20;;;12.50;;
36829;SDS011;22767;47.328;9.640;2023-01-30T08:07:46;19.33;;;11.40;;
36829;SDS011;22767;47.328;9.640;2023-01-30T08:10:12;24.50;;;13.52;;
36829;SDS011;22767;47.328;9.640;2023-01-30T08:12:39;26.95;;;13.98;;
36829;SDS011;22767;47.328;9.640;2023-01-30T08:15:06;24.60;;;13.77;;
36829;SDS011;22767;47.328;9.640;2023-01-30T08:17:32;24.63;;;14.70;;
36829;SDS011;22767;47.328;9.640;2023-01-30T08:19:58;25.65;;;14.20;;
36829;SDS011;22767;47.328;9.640;2023-01-30T08:22:24;28.42;;;14.60;;
36829;SDS011;22767;47.328;9.640;2023-01-30T08:24:51;23.42;;;14.00;;
36829;SDS011;22767;47.328;9.640;2023-01-30T08:27:17;23.02;;;14.13;;
36829;SDS011;22767;47.328;9.640;2023-01-30T08:29:43;29.23;;;14.93;;
36829;SDS011;22767;47.328;9.640;2023-01-30T08:32:09;26.83;;;15.00;;
36829;SDS011;22767;47.328;9.640;2023-01-30T08:34:36;28.23;;;16.05;;
36829;SDS011;22767;47.328;9.640;2023-01-30T08:37:02;26.85;;;15.82;;
36829;SDS011;22767;47.328;9.640;2023-01-30T08:39:28;36.95;;;19.17;;
36829;SDS011;22767;47.328;9.640;2023-01-30T08:41:54;34.10;;;18.33;;
36829;SDS011;22767;47.328;9.640;2023-01-30T08:44:20;34.25;;;17.63;;
36829;SDS011;22767;47.328;9.640;2023-01-30T08:46:47;31.05;;;16.92;;
36829;SDS011;22767;47.328;9.640;2023-01-30T08:49:13;36.30;;;17.17;;
36829;SDS011;22767;47.328;9.640;2023-01-30T08:51:39;36.53;;;18.92;;
36829;SDS011;22767;47.328;9.640;2023-01-30T08:54:05;32.78;;;17.70;;
36829;SDS011;22767;47.328;9.640;2023-01-30T08:56:32;32.20;;;17.38;;
36829;SDS011;22767;47.328;9.640;2023-01-30T08:58:58;31.27;;;16.75;;
36829;SDS011;22767;47.328;9.640;2023-01-30T09:01:24;34.58;;;16.23;;
36829;SDS011;22767;47.328;9.640;2023-01-30T09:03:50;32.92;;;16.25;;
36829;SDS011;22767;47.328;9.640;2023-01-30T09:06:17;31.23;;;16.58;;
36829;SDS011;22767;47.328;9.640;2023-01-30T09:08:43;28.58;;;16.45;;
36829;SDS011;22767;47.328;9.640;2023-01-30T09:11:09;36.30;;;18.65;;
36829;SDS011;22767;47.328;9.640;2023-01-30T09:13:36;33.75;;;18.25;;
36829;SDS011;22767;47.328;9.640;2023-01-30T09:16:07;41.35;;;21.90;;
36829;SDS011;22767;47.328;9.640;2023-01-30T09:18:36;37.10;;;20.05;;
36829;SDS011;22767;47.328;9.640;2023-01-30T09:21:03;32.70;;;16.95;;
36829;SDS011;22767;47.328;9.640;2023-01-30T09:23:29;30.55;;;16.58;;
36829;SDS011;22767;47.328;9.640;2023-01-30T09:25:55;29.38;;;16.50;;
36829;SDS011;22767;47.328;9.640;2023-01-30T09:28:21;28.50;;;16.92;;
36829;SDS011;22767;47.328;9.640;2023-01-30T09:30:47;31.52;;;16.88;;
36829;SDS011;22767;47.328;9.640;2023-01-30T09:33:14;31.60;;;15.25;;
36829;SDS011;22767;47.328;9.640;2023-01-30T09:35:45;28.20;;;16.45;;
36829;SDS011;22767;47.328;9.640;2023-01-30T09:38:11;31.85;;;14.93;;
36829;SDS011;22767;47.328;9.640;2023-01-30T09:40:40;30.63;;;16.15;;
36829;SDS011;22767;47.328;9.640;2023-01-30T09:45:45;27.60;;;15.18;;
36829;SDS011;22767;47.328;9.640;2023-01-30T09:55:38;29.27;;;15.30;;
36829;SDS011;22767;47.328;9.640;2023-01-30T09:58:18;31.85;;;16.73;;
36829;SDS011;22767;47.328;9.640;2023-01-30T10:00:45;33.53;;;16.10;;
36829;SDS011;22767;47.328;9.640;2023-01-30T10:03:17;27.90;;;15.20;;
36829;SDS011;22767;47.328;9.640;2023-01-30T10:05:58;29.48;;;15.45;;
36829;SDS011;22767;47.328;9.640;2023-01-30T10:11:04;28.95;;;15.98;;
36829;SDS011;22767;47.328;9.640;2023-01-30T10:18:47;31.02;;;16.40;;
36829;SDS011;22767;47.328;9.640;2023-01-30T10:26:26;26.13;;;13.73;;
36829;SDS011;22767;47.328;9.640;2023-01-30T10:29:06;25.13;;;13.18;;
36829;SDS011;22767;47.328;9.640;2023-01-30T10:31:39;22.95;;;12.60;;
36829;SDS011;22767;47.328;9.640;2023-01-30T10:34:18;21.20;;;12.18;;
36829;SDS011;22767;47.328;9.640;2023-01-30T10:42:05;20.13;;;12.20;;
36829;SDS011;22767;47.328;9.640;2023-01-30T10:44:32;21.75;;;11.98;;
36829;SDS011;22767;47.328;9.640;2023-01-30T10:49:41;26.00;;;13.25;;
36829;SDS011;22767;47.328;9.640;2023-01-30T11:05:12;22.98;;;11.68;;
36829;SDS011;22767;47.328;9.640;2023-01-30T11:07:39;22.40;;;12.65;;
36829;SDS011;22767;47.328;9.640;2023-01-30T11:10:25;21.17;;;12.10;;
36829;SDS011;22767;47.328;9.640;2023-01-30T11:12:59;26.88;;;13.30;;
36829;SDS011;22767;47.328;9.640;2023-01-30T11:15:41;24.95;;;13.57;;
36829;SDS011;22767;47.328;9.640;2023-01-30T11:18:09;23.17;;;12.55;;
36829;SDS011;22767;47.328;9.640;2023-01-30T11:20:39;19.90;;;11.88;;
36829;SDS011;22767;47.328;9.640;2023-01-30T11:25:32;20.33;;;11.23;;
36829;SDS011;22767;47.328;9.640;2023-01-30T11:28:11;21.55;;;10.98;;
36829;SDS011;22767;47.328;9.640;2023-01-30T11:30:41;24.85;;;11.57;;
36829;SDS011;22767;47.328;9.640;2023-01-30T11:33:12;19.08;;;11.25;;
36829;SDS011;22767;47.328;9.640;2023-01-30T11:35:40;19.83;;;10.45;;
36829;SDS011;22767;47.328;9.640;2023-01-30T11:38:12;20.10;;;10.10;;
36829;SDS011;22767;47.328;9.640;2023-01-30T11:40:45;17.58;;;9.23;;
36829;SDS011;22767;47.328;9.640;2023-01-30T11:43:12;17.88;;;9.80;;
36829;SDS011;22767;47.328;9.640;2023-01-30T11:45:46;18.10;;;9.93;;
36829;SDS011;22767;47.328;9.640;2023-01-30T11:48:19;20.38;;;10.38;;
36829;SDS011;22767;47.328;9.640;2023-01-30T11:50:47;20.23;;;9.35;;
36829;SDS011;22767;47.328;9.640;2023-01-30T11:53:24;18.52;;;10.18;;
36829;SDS011;22767;47.328;9.640;2023-01-30T11:55:59;17.77;;;9.82;;
36829;SDS011;22767;47.328;9.640;2023-01-30T11:58:32;19.75;;;10.00;;
36829;SDS011;22767;47.328;9.640;2023-01-30T12:00:59;22.15;;;10.43;;
36829;SDS011;22767;47.328;9.640;2023-01-30T12:03:26;20.30;;;10.75;;
36829;SDS011;22767;47.328;9.640;2023-01-30T12:05:54;19.30;;;10.80;;
36829;SDS011;22767;47.328;9.640;2023-01-30T12:10:51;17.10;;;9.57;;
36829;SDS011;22767;47.328;9.640;2023-01-30T12:16:17;18.70;;;9.07;;
36829;SDS011;22767;47.328;9.640;2023-01-30T12:19:06;17.38;;;9.68;;
36829;SDS011;22767;47.328;9.640;2023-01-30T12:21:33;15.77;;;9.18;;
36829;SDS011;22767;47.328;9.640;2023-01-30T12:24:04;15.90;;;9.48;;
36829;SDS011;22767;47.328;9.640;2023-01-30T12:26:45;18.85;;;9.95;;
36829;SDS011;22767;47.328;9.640;2023-01-30T12:29:28;18.48;;;10.38;;
36829;SDS011;22767;47.328;9.640;2023-01-30T12:32:03;18.05;;;10.15;;
36829;SDS011;22767;47.328;9.640;2023-01-30T12:34:30;21.83;;;10.13;;
36829;SDS011;22767;47.328;9.640;2023-01-30T12:47:47;16.17;;;10.07;;
36829;SDS011;22767;47.328;9.640;2023-01-30T12:50:19;16.05;;;9.60;;
36829;SDS011;22767;47.328;9.640;2023-01-30T12:55:25;21.88;;;10.68;;
36829;SDS011;22767;47.328;9.640;2023-01-30T13:02:55;16.58;;;9.57;;
36829;SDS011;22767;47.328;9.640;2023-01-30T13:05:37;17.30;;;9.63;;
36829;SDS011;22767;47.328;9.640;2023-01-30T13:08:20;18.35;;;9.60;;
36829;SDS011;22767;47.328;9.640;2023-01-30T13:10:56;16.75;;;9.77;;
36829;SDS011;22767;47.328;9.640;2023-01-30T13:13:34;15.48;;;8.98;;
36829;SDS011;22767;47.328;9.640;2023-01-30T13:16:13;21.00;;;9.35;;
36829;SDS011;22767;47.328;9.640;2023-01-30T13:21:17;19.83;;;10.25;;
36829;SDS011;22767;47.328;9.640;2023-01-30T13:23:47;17.77;;;9.20;;
36829;SDS011;22767;47.328;9.640;2023-01-30T13:26:17;22.53;;;10.70;;
36829;SDS011;22767;47.328;9.640;2023-01-30T13:28:44;19.00;;;10.65;;
36829;SDS011;22767;47.328;9.640;2023-01-30T13:31:13;19.45;;;10.50;;
36829;SDS011;22767;47.328;9.640;2023-01-30T13:33:40;18.75;;;10.68;;
36829;SDS011;22767;47.328;9.640;2023-01-30T13:36:25;19.13;;;10.13;;
36829;SDS011;22767;47.328;9.640;2023-01-30T13:41:38;16.17;;;9.75;;
36829;SDS011;22767;47.328;9.640;2023-01-30T13:44:27;18.38;;;9.93;;
36829;SDS011;22767;47.328;9.640;2023-01-30T13:46:55;15.15;;;10.00;;
36829;SDS011;22767;47.328;9.640;2023-01-30T13:49:28;18.42;;;10.18;;
36829;SDS011;22767;47.328;9.640;2023-01-30T13:52:01;16.50;;;9.15;;
36829;SDS011;22767;47.328;9.640;2023-01-30T14:02:29;16.17;;;8.93;;
36829;SDS011;22767;47.328;9.640;2023-01-30T14:04:57;18.33;;;8.90;;
36829;SDS011;22767;47.328;9.640;2023-01-30T14:07:24;18.67;;;9.30;;
36829;SDS011;22767;47.328;9.640;2023-01-30T14:15:17;18.58;;;10.25;;
36829;SDS011;22767;47.328;9.640;2023-01-30T14:20:23;23.33;;;10.20;;
36829;SDS011;22767;47.328;9.640;2023-01-30T14:22:53;24.77;;;11.20;;
36829;SDS011;22767;47.328;9.640;2023-01-30T14:32:58;17.90;;;10.80;;
36829;SDS011;22767;47.328;9.640;2023-01-30T14:35:31;22.48;;;11.07;;
36829;SDS011;22767;47.328;9.640;2023-01-30T14:38:08;20.73;;;10.73;;
36829;SDS011;22767;47.328;9.640;2023-01-30T14:40:36;25.67;;;11.82;;
36829;SDS011;22767;47.328;9.640;2023-01-30T14:51:33;18.73;;;9.93;;
36829;SDS011;22767;47.328;9.640;2023-01-30T14:54:08;18.95;;;10.20;;
36829;SDS011;22767;47.328;9.640;2023-01-30T14:56:51;17.25;;;9.60;;
36829;SDS011;22767;47.328;9.640;2023-01-30T14:59:23;17.95;;;10.45;;
36829;SDS011;22767;47.328;9.640;2023-01-30T15:01:57;17.38;;;9.43;;
36829;SDS011;22767;47.328;9.640;2023-01-30T15:04:29;14.13;;;8.88;;
36829;SDS011;22767;47.328;9.640;2023-01-30T15:06:57;15.73;;;10.00;;
36829;SDS011;22767;47.328;9.640;2023-01-30T15:09:24;15.18;;;9.13;;
36829;SDS011;22767;47.328;9.640;2023-01-30T15:15:14;16.95;;;9.88;;
36829;SDS011;22767;47.328;9.640;2023-01-30T15:17:50;18.75;;;10.05;;
36829;SDS011;22767;47.328;9.640;2023-01-30T15:23:10;15.50;;;8.60;;
36829;SDS011;22767;47.328;9.640;2023-01-30T15:28:18;19.05;;;9.25;;
36829;SDS011;22767;47.328;9.640;2023-01-30T15:33:18;14.88;;;8.63;;
36829;SDS011;22767;47.328;9.640;2023-01-30T15:35:44;15.02;;;8.30;;
36829;SDS011;22767;47.328;9.640;2023-01-30T15:38:27;14.70;;;8.82;;
36829;SDS011;22767;47.328;9.640;2023-01-30T15:40:54;15.43;;;7.70;;
36829;SDS011;22767;47.328;9.640;2023-01-30T15:50:49;18.23;;;9.50;;
36829;SDS011;22767;47.328;9.640;2023-01-30T15:53:17;15.35;;;9.50;;
36829;SDS011;22767;47.328;9.640;2023-01-30T15:55:48;24.05;;;9.82;;
36829;SDS011;22767;47.328;9.640;2023-01-30T15:58:17;22.58;;;12.18;;
36829;SDS011;22767;47.328;9.640;2023-01-30T16:01:05;23.38;;;12.13;;
36829;SDS011;22767;47.328;9.640;2023-01-30T16:03:31;25.33;;;10.68;;
36829;SDS011;22767;47.328;9.640;2023-01-30T16:06:00;20.10;;;9.60;;
36829;SDS011;22767;47.328;9.640;2023-01-30T16:08:30;18.88;;;8.52;;
36829;SDS011;22767;47.328;9.640;2023-01-30T16:10:56;18.35;;;9.38;;
36829;SDS011;22767;47.328;9.640;2023-01-30T16:13:25;18.50;;;8.90;;
36829;SDS011;22767;47.328;9.640;2023-01-30T16:21:09;21.08;;;10.25;;
36829;SDS011;22767;47.328;9.640;2023-01-30T16:23:42;17.35;;;9.77;;
36829;SDS011;22767;47.328;9.640;2023-01-30T16:26:17;18.63;;;11.60;;
36829;SDS011;22767;47.328;9.640;2023-01-30T16:28:45;15.27;;;9.75;;
36829;SDS011;22767;47.328;9.640;2023-01-30T16:31:13;12.65;;;7.63;;
36829;SDS011;22767;47.328;9.640;2023-01-30T16:33:40;12.10;;;6.95;;
36829;SDS011;22767;47.328;9.640;2023-01-30T16:38:45;9.13;;;5.78;;
36829;SDS011;22767;47.328;9.640;2023-01-30T16:49:12;10.88;;;5.30;;
36829;SDS011;22767;47.328;9.640;2023-01-30T16:51:39;12.35;;;5.80;;
36829;SDS011;22767;47.328;9.640;2023-01-30T16:54:05;8.65;;;5.10;;
36829;SDS011;22767;47.328;9.640;2023-01-30T16:56:40;9.10;;;4.07;;
36829;SDS011;22767;47.328;9.640;2023-01-30T16:59:16;6.32;;;3.63;;
36829;SDS011;22767;47.328;9.640;2023-01-30T17:01:43;7.38;;;3.55;;
36829;SDS011;22767;47.328;9.640;2023-01-30T17:04:18;5.53;;;3.42;;
36829;SDS011;22767;47.328;9.640;2023-01-30T17:06:52;6.25;;;3.20;;
36829;SDS011;22767;47.328;9.640;2023-01-30T17:09:36;5.40;;;2.72;;
36829;SDS011;22767;47.328;9.640;2023-01-30T17:14:47;5.95;;;2.15;;
36829;SDS011;22767;47.328;9.640;2023-01-30T17:17:13;3.92;;;1.92;;
36829;SDS011;22767;47.328;9.640;2023-01-30T17:19:40;1.63;;;1.50;;
36829;SDS011;22767;47.328;9.640;2023-01-30T17:22:07;2.00;;;1.35;;
36829;SDS011;22767;47.328;9.640;2023-01-30T17:24:39;2.17;;;1.42;;
36829;SDS011;22767;47.328;9.640;2023-01-30T17:27:05;3.58;;;1.20;;